createdAt,value
2017-10-08T00:00:00.845Z,780.49
2017-10-08T00:00:05.282Z,780.55
2017-10-08T00:00:09.369Z,780.54
2017-10-08T00:00:13.461Z,780.57
2017-10-08T00:00:17.795Z,780.57
2017-10-08T00:00:21.880Z,780.57
2017-10-08T00:00:25.977Z,780.57
2017-10-08T00:00:29.937Z,780.53
2017-10-08T00:00:33.893Z,780.47
2017-10-08T00:00:37.855Z,780.5
2017-10-08T00:00:41.941Z,780.5
2017-10-08T00:00:45.897Z,780.56
2017-10-08T00:00:49.868Z,780.57
2017-10-08T00:00:54.085Z,780.56
2017-10-08T00:00:58.174Z,780.58
2017-10-08T00:01:02.515Z,780.55
2017-10-08T00:01:06.852Z,780.57
2017-10-08T00:01:10.986Z,780.58
2017-10-08T00:01:15.323Z,780.58
2017-10-08T00:01:19.413Z,780.56
2017-10-08T00:01:23.622Z,780.57
2017-10-08T00:01:27.955Z,780.58
2017-10-08T00:01:32.043Z,780.55
2017-10-08T00:01:36.626Z,780.55
2017-10-08T00:01:40.841Z,780.57
2017-10-08T00:01:44.678Z,780.55
2017-10-08T00:01:48.887Z,780.54
2017-10-08T00:01:53.232Z,780.58
2017-10-08T00:01:57.449Z,780.55
2017-10-08T00:02:01.424Z,780.58
2017-10-08T00:02:05.510Z,780.57
2017-10-08T00:02:09.849Z,780.58
2017-10-08T00:02:14.056Z,780.57
2017-10-08T00:02:18.395Z,780.56
2017-10-08T00:02:22.855Z,780.57
2017-10-08T00:02:27.317Z,780.56
2017-10-08T00:02:31.402Z,780.54
2017-10-08T00:02:35.735Z,780.59
2017-10-08T00:02:40.082Z,780.61
2017-10-08T00:02:44.294Z,780.6
2017-10-08T00:02:48.749Z,780.57
2017-10-08T00:02:53.086Z,780.57
2017-10-08T00:02:57.052Z,780.59
2017-10-08T00:03:01.385Z,780.59
2017-10-08T00:03:05.948Z,780.59
2017-10-08T00:03:10.405Z,780.6
2017-10-08T00:03:14.367Z,780.6
2017-10-08T00:03:18.329Z,780.57
2017-10-08T00:03:22.414Z,780.6
2017-10-08T00:03:26.624Z,780.61
2017-10-08T00:03:30.834Z,780.61
2017-10-08T00:03:35.164Z,780.62
2017-10-08T00:03:39.253Z,780.65
2017-10-08T00:03:43.462Z,780.66
2017-10-08T00:03:47.796Z,780.63
2017-10-08T00:03:52.389Z,780.64
2017-10-08T00:03:56.223Z,780.61
2017-10-08T00:04:00.436Z,780.63
2017-10-08T00:04:04.783Z,780.62
2017-10-08T00:04:09.118Z,780.62
2017-10-08T00:04:13.337Z,780.6
2017-10-08T00:04:17.295Z,780.59
2017-10-08T00:04:21.502Z,780.65
2017-10-08T00:04:25.714Z,780.62
2017-10-08T00:04:30.047Z,780.58
2017-10-08T00:04:34.132Z,780.57
2017-10-08T00:04:38.588Z,780.63
2017-10-08T00:04:42.800Z,780.62
2017-10-08T00:04:47.405Z,780.61
2017-10-08T00:04:51.746Z,780.61
2017-10-08T00:04:55.958Z,780.64
2017-10-08T00:05:00.296Z,780.65
2017-10-08T00:05:04.750Z,780.6
2017-10-08T00:05:09.214Z,780.65
2017-10-08T00:05:13.183Z,780.62
2017-10-08T00:05:17.404Z,780.64
2017-10-08T00:05:21.490Z,780.64
2017-10-08T00:05:25.831Z,780.63
2017-10-08T00:05:29.918Z,780.68
2017-10-08T00:05:34.137Z,780.66
2017-10-08T00:05:38.342Z,780.64
2017-10-08T00:05:42.554Z,780.67
2017-10-08T00:05:46.893Z,780.69
2017-10-08T00:05:51.106Z,780.67
2017-10-08T00:05:55.312Z,780.67
2017-10-08T00:05:59.519Z,780.7
2017-10-08T00:06:04.156Z,780.65
2017-10-08T00:06:08.238Z,780.65
2017-10-08T00:06:12.324Z,780.67
2017-10-08T00:06:16.659Z,780.69
2017-10-08T00:06:20.747Z,780.67
2017-10-08T00:06:24.952Z,780.63
2017-10-08T00:06:29.163Z,780.68
2017-10-08T00:06:33.410Z,780.67
2017-10-08T00:06:37.369Z,780.68
2017-10-08T00:06:41.578Z,780.68
2017-10-08T00:06:45.664Z,780.64
2017-10-08T00:06:49.876Z,780.67
2017-10-08T00:06:54.217Z,780.67
2017-10-08T00:06:58.431Z,780.7
2017-10-08T00:07:02.616Z,780.67
2017-10-08T00:07:06.833Z,780.69
2017-10-08T00:07:10.922Z,780.72
2017-10-08T00:07:15.011Z,780.7
2017-10-08T00:07:19.226Z,780.69
2017-10-08T00:07:23.438Z,780.69
2017-10-08T00:07:27.779Z,780.63
2017-10-08T00:07:32.115Z,780.69
2017-10-08T00:07:36.212Z,780.7
2017-10-08T00:07:40.302Z,780.68
2017-10-08T00:07:44.260Z,780.74
2017-10-08T00:07:48.608Z,780.68
2017-10-08T00:07:52.819Z,780.68
2017-10-08T00:07:56.902Z,780.71
2017-10-08T00:08:01.363Z,780.69
2017-10-08T00:08:06.077Z,780.71
2017-10-08T00:08:10.169Z,780.74
2017-10-08T00:08:14.404Z,780.71
2017-10-08T00:08:18.619Z,780.71
2017-10-08T00:08:22.958Z,780.74
2017-10-08T00:08:27.042Z,780.74
2017-10-08T00:08:31.141Z,780.72
2017-10-08T00:08:35.356Z,780.69
2017-10-08T00:08:39.201Z,780.69
2017-10-08T00:08:43.536Z,780.73
2017-10-08T00:08:47.872Z,780.75
2017-10-08T00:08:52.082Z,780.7
2017-10-08T00:08:56.050Z,780.74
2017-10-08T00:09:00.261Z,780.75
2017-10-08T00:09:04.649Z,780.7
2017-10-08T00:09:08.735Z,780.77
2017-10-08T00:09:13.070Z,780.77
2017-10-08T00:09:17.157Z,780.79
2017-10-08T00:09:21.492Z,780.75
2017-10-08T00:09:25.579Z,780.74
2017-10-08T00:09:29.789Z,780.76
2017-10-08T00:09:34.125Z,780.77
2017-10-08T00:09:38.343Z,780.79
2017-10-08T00:09:42.430Z,780.79
2017-10-08T00:09:46.772Z,780.72
2017-10-08T00:09:51.105Z,780.79
2017-10-08T00:09:54.940Z,780.78
2017-10-08T00:09:58.899Z,780.74
2017-10-08T00:10:02.988Z,780.78
2017-10-08T00:10:07.201Z,780.8
2017-10-08T00:10:11.413Z,780.77
2017-10-08T00:10:15.502Z,780.8
2017-10-08T00:10:19.713Z,780.79
2017-10-08T00:10:24.050Z,780.81
2017-10-08T00:10:28.260Z,780.8
2017-10-08T00:10:32.598Z,780.82
2017-10-08T00:10:36.940Z,780.81
2017-10-08T00:10:41.030Z,780.83
2017-10-08T00:10:45.363Z,780.78
2017-10-08T00:10:49.697Z,780.81
2017-10-08T00:10:53.783Z,780.82
2017-10-08T00:10:57.872Z,780.82
2017-10-08T00:11:02.079Z,780.81
2017-10-08T00:11:06.412Z,780.8
2017-10-08T00:11:10.748Z,780.83
2017-10-08T00:11:14.708Z,780.85
2017-10-08T00:11:18.921Z,780.85
2017-10-08T00:11:23.012Z,780.84
2017-10-08T00:11:27.224Z,780.82
2017-10-08T00:11:31.565Z,780.83
2017-10-08T00:11:35.523Z,780.8
2017-10-08T00:11:39.737Z,780.82
2017-10-08T00:11:43.702Z,780.88
2017-10-08T00:11:47.790Z,780.8
2017-10-08T00:11:51.876Z,780.82
2017-10-08T00:11:55.831Z,780.86
2017-10-08T00:11:59.921Z,780.88
2017-10-08T00:12:04.400Z,780.87
2017-10-08T00:12:08.620Z,780.87
2017-10-08T00:12:12.707Z,780.87
2017-10-08T00:12:16.544Z,780.84
2017-10-08T00:12:20.877Z,780.9
2017-10-08T00:12:25.091Z,780.87
2017-10-08T00:12:29.306Z,780.86
2017-10-08T00:12:33.646Z,780.89
2017-10-08T00:12:37.858Z,780.88
2017-10-08T00:12:41.689Z,780.86
2017-10-08T00:12:45.770Z,780.9
2017-10-08T00:12:49.981Z,780.9
2017-10-08T00:12:54.192Z,780.88
2017-10-08T00:12:58.276Z,780.93
2017-10-08T00:13:02.238Z,780.89
2017-10-08T00:13:06.483Z,780.88
2017-10-08T00:13:10.825Z,780.88
2017-10-08T00:13:14.786Z,780.88
2017-10-08T00:13:19.001Z,780.91
2017-10-08T00:13:23.213Z,780.89
2017-10-08T00:13:27.301Z,780.9
2017-10-08T00:13:31.383Z,780.93
2017-10-08T00:13:35.591Z,780.9
2017-10-08T00:13:39.555Z,780.95
2017-10-08T00:13:43.514Z,780.92
2017-10-08T00:13:47.355Z,780.92
2017-10-08T00:13:51.314Z,780.89
2017-10-08T00:13:55.272Z,780.93
2017-10-08T00:13:59.479Z,780.91
2017-10-08T00:14:03.566Z,780.93
2017-10-08T00:14:07.399Z,780.86
2017-10-08T00:14:11.739Z,780.87
2017-10-08T00:14:15.826Z,780.87
2017-10-08T00:14:19.911Z,780.95
2017-10-08T00:14:24.253Z,780.95
2017-10-08T00:14:28.466Z,780.89
2017-10-08T00:14:32.425Z,780.95
2017-10-08T00:14:37.016Z,780.93
2017-10-08T00:14:41.107Z,780.94
2017-10-08T00:14:45.224Z,780.92
2017-10-08T00:14:49.160Z,780.93
2017-10-08T00:14:52.992Z,780.89
2017-10-08T00:14:57.076Z,780.87
2017-10-08T00:15:01.039Z,780.9
2017-10-08T00:15:05.712Z,780.92
2017-10-08T00:15:10.046Z,780.92
2017-10-08T00:15:14.374Z,780.91
2017-10-08T00:15:18.584Z,780.94
2017-10-08T00:15:22.554Z,780.91
2017-10-08T00:15:26.771Z,780.88
2017-10-08T00:15:30.861Z,780.93
2017-10-08T00:15:35.070Z,780.94
2017-10-08T00:15:39.158Z,780.93
2017-10-08T00:15:43.246Z,780.92
2017-10-08T00:15:47.332Z,780.92
2017-10-08T00:15:51.534Z,780.91
2017-10-08T00:15:55.738Z,780.86
2017-10-08T00:15:59.829Z,780.89
2017-10-08T00:16:03.894Z,780.92
2017-10-08T00:16:07.856Z,780.94
2017-10-08T00:16:12.070Z,780.91
2017-10-08T00:16:16.274Z,780.91
2017-10-08T00:16:20.486Z,780.9
2017-10-08T00:16:24.579Z,780.95
2017-10-08T00:16:28.790Z,780.92
2017-10-08T00:16:32.757Z,780.92
2017-10-08T00:16:36.842Z,780.9
2017-10-08T00:16:41.176Z,780.96
2017-10-08T00:16:45.390Z,780.94
2017-10-08T00:16:49.607Z,780.9
2017-10-08T00:16:53.690Z,780.87
2017-10-08T00:16:57.901Z,780.89
2017-10-08T00:17:01.874Z,780.91
2017-10-08T00:17:06.179Z,780.91
2017-10-08T00:17:10.266Z,780.91
2017-10-08T00:17:14.106Z,780.92
2017-10-08T00:17:18.071Z,780.9
2017-10-08T00:17:22.290Z,780.93
2017-10-08T00:17:26.538Z,780.93
2017-10-08T00:17:30.379Z,780.92
2017-10-08T00:17:34.467Z,780.93
2017-10-08T00:17:38.555Z,780.93
2017-10-08T00:17:42.770Z,780.92
2017-10-08T00:17:46.980Z,780.93
2017-10-08T00:17:51.193Z,780.93
2017-10-08T00:17:55.278Z,780.94
2017-10-08T00:17:59.490Z,780.92
2017-10-08T00:18:03.456Z,780.93
2017-10-08T00:18:07.668Z,780.85
2017-10-08T00:18:11.753Z,780.91
2017-10-08T00:18:16.088Z,780.94
2017-10-08T00:18:20.298Z,780.93
2017-10-08T00:18:24.524Z,780.91
2017-10-08T00:18:28.993Z,780.93
2017-10-08T00:18:33.325Z,780.93
2017-10-08T00:18:37.536Z,780.94
2017-10-08T00:18:41.624Z,780.96
2017-10-08T00:18:45.836Z,780.95
2017-10-08T00:18:49.796Z,780.95
2017-10-08T00:18:53.883Z,780.94
2017-10-08T00:18:57.965Z,780.95
2017-10-08T00:19:02.175Z,780.96
2017-10-08T00:19:06.386Z,780.94
2017-10-08T00:19:10.353Z,780.94
2017-10-08T00:19:14.311Z,780.93
2017-10-08T00:19:18.398Z,780.88
2017-10-08T00:19:22.232Z,780.89
2017-10-08T00:19:26.193Z,780.91
2017-10-08T00:19:30.161Z,780.91
2017-10-08T00:19:34.120Z,780.91
2017-10-08T00:19:38.332Z,780.92
2017-10-08T00:19:42.417Z,780.87
2017-10-08T00:19:46.630Z,780.87
2017-10-08T00:19:50.972Z,780.92
2017-10-08T00:19:55.305Z,780.93
2017-10-08T00:19:59.647Z,780.91
2017-10-08T00:20:03.486Z,780.95
2017-10-08T00:20:07.570Z,780.9
2017-10-08T00:20:11.530Z,780.93
2017-10-08T00:20:15.611Z,780.91
2017-10-08T00:20:19.823Z,780.93
2017-10-08T00:20:23.789Z,780.9
2017-10-08T00:20:28.010Z,780.91
2017-10-08T00:20:32.482Z,780.9
2017-10-08T00:20:36.448Z,780.91
2017-10-08T00:20:40.662Z,780.9
2017-10-08T00:20:45.001Z,780.89
2017-10-08T00:20:49.085Z,780.89
2017-10-08T00:20:53.420Z,780.91
2017-10-08T00:20:57.756Z,780.87
2017-10-08T00:21:01.977Z,780.89
2017-10-08T00:21:06.191Z,780.89
2017-10-08T00:21:10.279Z,780.89
2017-10-08T00:21:14.363Z,780.88
2017-10-08T00:21:18.329Z,780.86
2017-10-08T00:21:22.293Z,780.88
2017-10-08T00:21:26.384Z,780.85
2017-10-08T00:21:30.722Z,780.89
2017-10-08T00:21:35.309Z,780.86
2017-10-08T00:21:39.518Z,780.88
2017-10-08T00:21:43.852Z,780.87
2017-10-08T00:21:48.191Z,780.87
2017-10-08T00:21:52.285Z,780.91
2017-10-08T00:21:56.499Z,780.9
2017-10-08T00:22:00.834Z,780.91
2017-10-08T00:22:05.046Z,780.89
2017-10-08T00:22:09.137Z,780.89
2017-10-08T00:22:13.101Z,780.91
2017-10-08T00:22:17.314Z,780.9
2017-10-08T00:22:21.653Z,780.89
2017-10-08T00:22:25.742Z,780.9
2017-10-08T00:22:29.578Z,780.89
2017-10-08T00:22:33.661Z,780.92
2017-10-08T00:22:37.617Z,780.88
2017-10-08T00:22:41.829Z,780.86
2017-10-08T00:22:45.786Z,780.88
2017-10-08T00:22:49.751Z,780.92
2017-10-08T00:22:53.712Z,780.89
2017-10-08T00:22:57.672Z,780.87
2017-10-08T00:23:01.758Z,780.9
2017-10-08T00:23:05.978Z,780.88
2017-10-08T00:23:10.180Z,780.89
2017-10-08T00:23:14.393Z,780.88
2017-10-08T00:23:18.605Z,780.9
2017-10-08T00:23:22.812Z,780.9
2017-10-08T00:23:27.153Z,780.91
2017-10-08T00:23:31.366Z,780.87
2017-10-08T00:23:35.574Z,780.89
2017-10-08T00:23:39.660Z,780.87
2017-10-08T00:23:43.624Z,780.84
2017-10-08T00:23:47.836Z,780.88
2017-10-08T00:23:51.923Z,780.84
2017-10-08T00:23:55.881Z,780.86
2017-10-08T00:23:59.966Z,780.88
2017-10-08T00:24:04.544Z,780.86
2017-10-08T00:24:08.630Z,780.88
2017-10-08T00:24:12.847Z,780.87
2017-10-08T00:24:17.071Z,780.9
2017-10-08T00:24:21.526Z,780.87
2017-10-08T00:24:25.493Z,780.86
2017-10-08T00:24:29.575Z,780.88
2017-10-08T00:24:33.916Z,780.86
2017-10-08T00:24:38.248Z,780.89
2017-10-08T00:24:42.579Z,780.86
2017-10-08T00:24:46.540Z,780.86
2017-10-08T00:24:50.873Z,780.9
2017-10-08T00:24:54.958Z,780.87
2017-10-08T00:24:59.294Z,780.88
2017-10-08T00:25:03.626Z,780.89
2017-10-08T00:25:07.837Z,780.88
2017-10-08T00:25:11.930Z,780.86
2017-10-08T00:25:16.137Z,780.89
2017-10-08T00:25:20.221Z,780.87
2017-10-08T00:25:24.434Z,780.84
2017-10-08T00:25:28.890Z,780.84
2017-10-08T00:25:32.853Z,780.87
2017-10-08T00:25:36.944Z,780.83
2017-10-08T00:25:41.153Z,780.81
2017-10-08T00:25:45.368Z,780.82
2017-10-08T00:25:49.206Z,780.82
2017-10-08T00:25:53.418Z,780.84
2017-10-08T00:25:57.622Z,780.82
2017-10-08T00:26:01.583Z,780.84
2017-10-08T00:26:05.671Z,780.82
2017-10-08T00:26:09.890Z,780.84
2017-10-08T00:26:13.727Z,780.85
2017-10-08T00:26:18.186Z,780.84
2017-10-08T00:26:22.270Z,780.81
2017-10-08T00:26:26.597Z,780.83
2017-10-08T00:26:30.808Z,780.81
2017-10-08T00:26:34.896Z,780.85
2017-10-08T00:26:39.224Z,780.85
2017-10-08T00:26:43.431Z,780.83
2017-10-08T00:26:47.643Z,780.83
2017-10-08T00:26:51.730Z,780.83
2017-10-08T00:26:55.818Z,780.84
2017-10-08T00:27:00.285Z,780.86
2017-10-08T00:27:04.725Z,780.84
2017-10-08T00:27:09.058Z,780.86
2017-10-08T00:27:13.021Z,780.84
2017-10-08T00:27:17.238Z,780.84
2017-10-08T00:27:21.209Z,780.83
2017-10-08T00:27:25.425Z,780.82
2017-10-08T00:27:29.635Z,780.84
2017-10-08T00:27:33.609Z,780.82
2017-10-08T00:27:37.950Z,780.83
2017-10-08T00:27:42.036Z,780.86
2017-10-08T00:27:46.368Z,780.8
2017-10-08T00:27:50.823Z,780.86
2017-10-08T00:27:54.783Z,780.82
2017-10-08T00:27:58.740Z,780.84
2017-10-08T00:28:02.712Z,780.81
2017-10-08T00:28:06.924Z,780.75
2017-10-08T00:28:11.136Z,780.81
2017-10-08T00:28:15.102Z,780.83
2017-10-08T00:28:19.440Z,780.84
2017-10-08T00:28:23.524Z,780.82
2017-10-08T00:28:27.610Z,780.83
2017-10-08T00:28:31.695Z,780.83
2017-10-08T00:28:35.783Z,780.83
2017-10-08T00:28:39.994Z,780.82
2017-10-08T00:28:44.208Z,780.84
2017-10-08T00:28:48.419Z,780.82
2017-10-08T00:28:52.261Z,780.83
2017-10-08T00:28:56.716Z,780.76
2017-10-08T00:29:00.813Z,780.81
2017-10-08T00:29:04.900Z,780.8
2017-10-08T00:29:09.104Z,780.81
2017-10-08T00:29:12.933Z,780.83
2017-10-08T00:29:17.140Z,780.8
2017-10-08T00:29:21.605Z,780.83
2017-10-08T00:29:25.816Z,780.82
2017-10-08T00:29:29.904Z,780.81
2017-10-08T00:29:33.859Z,780.82
2017-10-08T00:29:38.069Z,780.81
2017-10-08T00:29:42.408Z,780.79
2017-10-08T00:29:46.514Z,780.74
2017-10-08T00:29:50.603Z,780.8
2017-10-08T00:29:54.813Z,780.83
2017-10-08T00:29:58.899Z,780.83
2017-10-08T00:30:02.992Z,780.84
2017-10-08T00:30:07.326Z,780.8
2017-10-08T00:30:11.538Z,780.8
2017-10-08T00:30:15.626Z,780.81
2017-10-08T00:30:19.968Z,780.82
2017-10-08T00:30:24.055Z,780.77
2017-10-08T00:30:28.264Z,780.84
2017-10-08T00:30:32.474Z,780.82
2017-10-08T00:30:36.434Z,780.81
2017-10-08T00:30:40.648Z,780.83
2017-10-08T00:30:44.743Z,780.77
2017-10-08T00:30:48.826Z,780.8
2017-10-08T00:30:52.790Z,780.81
2017-10-08T00:30:56.997Z,780.8
2017-10-08T00:31:01.339Z,780.75
2017-10-08T00:31:05.629Z,780.73
2017-10-08T00:31:09.596Z,780.81
2017-10-08T00:31:13.559Z,780.81
2017-10-08T00:31:17.392Z,780.77
2017-10-08T00:31:21.726Z,780.77
2017-10-08T00:31:25.813Z,780.81
2017-10-08T00:31:30.033Z,780.82
2017-10-08T00:31:33.868Z,780.79
2017-10-08T00:31:37.958Z,780.8
2017-10-08T00:31:42.166Z,780.77
2017-10-08T00:31:46.375Z,780.8
2017-10-08T00:31:50.213Z,780.77
2017-10-08T00:31:54.051Z,780.79
2017-10-08T00:31:58.525Z,780.78
2017-10-08T00:32:02.741Z,780.75
2017-10-08T00:32:06.826Z,780.76
2017-10-08T00:32:10.912Z,780.76
2017-10-08T00:32:14.872Z,780.75
2017-10-08T00:32:18.957Z,780.74
2017-10-08T00:32:23.041Z,780.72
2017-10-08T00:32:27.128Z,780.76
2017-10-08T00:32:31.339Z,780.76
2017-10-08T00:32:35.795Z,780.75
2017-10-08T00:32:40.002Z,780.77
2017-10-08T00:32:44.208Z,780.73
2017-10-08T00:32:48.544Z,780.76
2017-10-08T00:32:52.509Z,780.74
2017-10-08T00:32:56.604Z,780.73
2017-10-08T00:33:00.816Z,780.68
2017-10-08T00:33:05.200Z,780.71
2017-10-08T00:33:09.541Z,780.7
2017-10-08T00:33:13.751Z,780.74
2017-10-08T00:33:17.959Z,780.73
2017-10-08T00:33:22.044Z,780.75
2017-10-08T00:33:26.250Z,780.76
2017-10-08T00:33:30.339Z,780.69
2017-10-08T00:33:34.548Z,780.7
2017-10-08T00:33:38.640Z,780.72
2017-10-08T00:33:42.728Z,780.73
2017-10-08T00:33:46.809Z,780.72
2017-10-08T00:33:51.022Z,780.71
2017-10-08T00:33:55.114Z,780.72
2017-10-08T00:33:59.078Z,780.71
2017-10-08T00:34:03.541Z,780.7
2017-10-08T00:34:07.873Z,780.71
2017-10-08T00:34:11.961Z,780.67
2017-10-08T00:34:15.794Z,780.68
2017-10-08T00:34:19.885Z,780.7
2017-10-08T00:34:24.095Z,780.71
2017-10-08T00:34:28.313Z,780.73
2017-10-08T00:34:32.524Z,780.69
2017-10-08T00:34:36.617Z,780.71
2017-10-08T00:34:40.825Z,780.65
2017-10-08T00:34:44.912Z,780.7
2017-10-08T00:34:49.001Z,780.69
2017-10-08T00:34:53.217Z,780.71
2017-10-08T00:34:57.180Z,780.7
2017-10-08T00:35:01.138Z,780.7
2017-10-08T00:35:04.976Z,780.68
2017-10-08T00:35:09.210Z,780.72
2017-10-08T00:35:13.180Z,780.71
2017-10-08T00:35:17.267Z,780.71
2017-10-08T00:35:21.354Z,780.73
2017-10-08T00:35:25.565Z,780.71
2017-10-08T00:35:29.523Z,780.67
2017-10-08T00:35:33.603Z,780.69
2017-10-08T00:35:37.941Z,780.69
2017-10-08T00:35:41.905Z,780.7
2017-10-08T00:35:46.116Z,780.68
2017-10-08T00:35:50.333Z,780.66
2017-10-08T00:35:54.793Z,780.67
2017-10-08T00:35:58.880Z,780.65
2017-10-08T00:36:02.845Z,780.67
2017-10-08T00:36:06.810Z,780.64
2017-10-08T00:36:10.902Z,780.67
2017-10-08T00:36:14.736Z,780.64
2017-10-08T00:36:18.945Z,780.68
2017-10-08T00:36:23.276Z,780.67
2017-10-08T00:36:27.362Z,780.64
2017-10-08T00:36:31.582Z,780.69
2017-10-08T00:36:35.916Z,780.69
2017-10-08T00:36:39.997Z,780.65
2017-10-08T00:36:44.078Z,780.64
2017-10-08T00:36:48.415Z,780.68
2017-10-08T00:36:52.636Z,780.65
2017-10-08T00:36:56.849Z,780.64
2017-10-08T00:37:00.808Z,780.66
2017-10-08T00:37:05.267Z,780.65
2017-10-08T00:37:09.599Z,780.67
2017-10-08T00:37:13.564Z,780.68
2017-10-08T00:37:17.773Z,780.65
2017-10-08T00:37:21.853Z,780.61
2017-10-08T00:37:26.056Z,780.67
2017-10-08T00:37:30.269Z,780.66
2017-10-08T00:37:34.233Z,780.67
2017-10-08T00:37:38.693Z,780.66
2017-10-08T00:37:42.786Z,780.67
2017-10-08T00:37:46.994Z,780.68
2017-10-08T00:37:50.967Z,780.66
2017-10-08T00:37:54.941Z,780.63
2017-10-08T00:37:59.154Z,780.65
2017-10-08T00:38:03.340Z,780.65
2017-10-08T00:38:07.555Z,780.62
2017-10-08T00:38:11.640Z,780.64
2017-10-08T00:38:15.852Z,780.64
2017-10-08T00:38:20.061Z,780.62
2017-10-08T00:38:24.020Z,780.63
2017-10-08T00:38:27.984Z,780.65
2017-10-08T00:38:32.197Z,780.64
2017-10-08T00:38:36.157Z,780.65
2017-10-08T00:38:40.237Z,780.65
2017-10-08T00:38:44.441Z,780.66
2017-10-08T00:38:48.645Z,780.63
2017-10-08T00:38:52.983Z,780.66
2017-10-08T00:38:57.070Z,780.64
2017-10-08T00:39:01.156Z,780.62
2017-10-08T00:39:05.368Z,780.65
2017-10-08T00:39:09.578Z,780.62
2017-10-08T00:39:13.540Z,780.62
2017-10-08T00:39:17.498Z,780.64
2017-10-08T00:39:21.587Z,780.62
2017-10-08T00:39:25.925Z,780.62
2017-10-08T00:39:30.145Z,780.61
2017-10-08T00:39:34.105Z,780.62
2017-10-08T00:39:38.184Z,780.64
2017-10-08T00:39:42.518Z,780.64
2017-10-08T00:39:46.603Z,780.64
2017-10-08T00:39:50.694Z,780.62
2017-10-08T00:39:55.038Z,780.63
2017-10-08T00:39:59.249Z,780.62
2017-10-08T00:40:03.584Z,780.63
2017-10-08T00:40:07.800Z,780.67
2017-10-08T00:40:11.883Z,780.63
2017-10-08T00:40:15.713Z,780.61
2017-10-08T00:40:19.830Z,780.6
2017-10-08T00:40:23.667Z,780.62
2017-10-08T00:40:27.757Z,780.59
2017-10-08T00:40:31.714Z,780.6
2017-10-08T00:40:35.809Z,780.56
2017-10-08T00:40:39.884Z,780.56
2017-10-08T00:40:44.219Z,780.58
2017-10-08T00:40:48.303Z,780.59
2017-10-08T00:40:52.390Z,780.57
2017-10-08T00:40:56.607Z,780.59
2017-10-08T00:41:00.566Z,780.59
2017-10-08T00:41:04.855Z,780.59
2017-10-08T00:41:09.059Z,780.6
2017-10-08T00:41:13.268Z,780.57
2017-10-08T00:41:17.232Z,780.56
2017-10-08T00:41:21.338Z,780.54
2017-10-08T00:41:25.794Z,780.54
2017-10-08T00:41:29.882Z,780.55
2017-10-08T00:41:34.345Z,780.57
2017-10-08T00:41:38.313Z,780.53
2017-10-08T00:41:42.396Z,780.52
2017-10-08T00:41:46.360Z,780.57
2017-10-08T00:41:50.195Z,780.58
2017-10-08T00:41:54.156Z,780.57
2017-10-08T00:41:58.241Z,780.58
2017-10-08T00:42:02.631Z,780.6
2017-10-08T00:42:06.965Z,780.58
2017-10-08T00:42:10.937Z,780.55
2017-10-08T00:42:14.894Z,780.57
2017-10-08T00:42:18.855Z,780.59
2017-10-08T00:42:22.820Z,780.58
2017-10-08T00:42:27.031Z,780.53
2017-10-08T00:42:31.377Z,780.58
2017-10-08T00:42:35.337Z,780.56
2017-10-08T00:42:39.420Z,780.56
2017-10-08T00:42:43.507Z,780.58
2017-10-08T00:42:47.716Z,780.55
2017-10-08T00:42:51.802Z,780.5
2017-10-08T00:42:55.884Z,780.58
2017-10-08T00:43:00.104Z,780.52
2017-10-08T00:43:04.619Z,780.58
2017-10-08T00:43:08.704Z,780.52
2017-10-08T00:43:12.661Z,780.54
2017-10-08T00:43:16.747Z,780.56
2017-10-08T00:43:20.840Z,780.55
2017-10-08T00:43:25.049Z,780.54
2017-10-08T00:43:29.260Z,780.49
2017-10-08T00:43:33.347Z,780.48
2017-10-08T00:43:37.427Z,780.53
2017-10-08T00:43:41.385Z,780.53
2017-10-08T00:43:45.466Z,780.55
2017-10-08T00:43:49.552Z,780.56
2017-10-08T00:43:53.635Z,780.52
2017-10-08T00:43:57.591Z,780.56
2017-10-08T00:44:02.029Z,780.55
2017-10-08T00:44:06.362Z,780.54
2017-10-08T00:44:10.446Z,780.54
2017-10-08T00:44:14.403Z,780.5
2017-10-08T00:44:18.492Z,780.49
2017-10-08T00:44:22.585Z,780.54
2017-10-08T00:44:26.790Z,780.52
2017-10-08T00:44:30.746Z,780.53
2017-10-08T00:44:34.829Z,780.56
2017-10-08T00:44:39.177Z,780.53
2017-10-08T00:44:43.256Z,780.54
2017-10-08T00:44:47.217Z,780.52
2017-10-08T00:44:51.680Z,780.52
2017-10-08T00:44:56.142Z,780.52
2017-10-08T00:45:00.104Z,780.54
2017-10-08T00:45:04.375Z,780.53
2017-10-08T00:45:08.459Z,780.5
2017-10-08T00:45:12.415Z,780.54
2017-10-08T00:45:16.504Z,780.53
2017-10-08T00:45:20.721Z,780.51
2017-10-08T00:45:24.681Z,780.53
2017-10-08T00:45:28.766Z,780.54
2017-10-08T00:45:32.856Z,780.5
2017-10-08T00:45:37.323Z,780.5
2017-10-08T00:45:41.533Z,780.51
2017-10-08T00:45:45.869Z,780.49
2017-10-08T00:45:50.086Z,780.52
2017-10-08T00:45:54.300Z,780.5
2017-10-08T00:45:58.639Z,780.46
2017-10-08T00:46:02.596Z,780.54
2017-10-08T00:46:06.563Z,780.55
2017-10-08T00:46:10.649Z,780.48
2017-10-08T00:46:14.610Z,780.54
2017-10-08T00:46:19.038Z,780.54
2017-10-08T00:46:23.376Z,780.56
2017-10-08T00:46:27.705Z,780.51
2017-10-08T00:46:31.788Z,780.55
2017-10-08T00:46:36.127Z,780.46
2017-10-08T00:46:40.220Z,780.47
2017-10-08T00:46:44.308Z,780.49
2017-10-08T00:46:48.766Z,780.48
2017-10-08T00:46:53.100Z,780.49
2017-10-08T00:46:56.940Z,780.5
2017-10-08T00:47:01.029Z,780.51
2017-10-08T00:47:05.164Z,780.51
2017-10-08T00:47:09.504Z,780.5
2017-10-08T00:47:13.717Z,780.54
2017-10-08T00:47:17.945Z,780.54
2017-10-08T00:47:22.263Z,780.53
2017-10-08T00:47:26.229Z,780.51
2017-10-08T00:47:30.563Z,780.51
2017-10-08T00:47:34.771Z,780.5
2017-10-08T00:47:38.608Z,780.51
2017-10-08T00:47:42.570Z,780.46
2017-10-08T00:47:46.538Z,780.54
2017-10-08T00:47:50.747Z,780.51
2017-10-08T00:47:54.709Z,780.5
2017-10-08T00:47:58.671Z,780.5
2017-10-08T00:48:03.288Z,780.5
2017-10-08T00:48:07.247Z,780.51
2017-10-08T00:48:11.335Z,780.5
2017-10-08T00:48:15.291Z,780.48
2017-10-08T00:48:19.631Z,780.45
2017-10-08T00:48:23.853Z,780.47
2017-10-08T00:48:28.063Z,780.46
2017-10-08T00:48:32.273Z,780.47
2017-10-08T00:48:36.487Z,780.47
2017-10-08T00:48:40.575Z,780.51
2017-10-08T00:48:44.539Z,780.54
2017-10-08T00:48:48.624Z,780.5
2017-10-08T00:48:52.835Z,780.49
2017-10-08T00:48:56.928Z,780.52
2017-10-08T00:49:01.012Z,780.53
2017-10-08T00:49:05.494Z,780.52
2017-10-08T00:49:09.576Z,780.53
2017-10-08T00:49:13.537Z,780.49
2017-10-08T00:49:17.905Z,780.51
2017-10-08T00:49:22.127Z,780.52
2017-10-08T00:49:26.335Z,780.52
2017-10-08T00:49:30.418Z,780.49
2017-10-08T00:49:34.375Z,780.48
2017-10-08T00:49:38.732Z,780.52
2017-10-08T00:49:42.941Z,780.53
2017-10-08T00:49:46.902Z,780.53
2017-10-08T00:49:50.862Z,780.51
2017-10-08T00:49:54.957Z,780.51
2017-10-08T00:49:59.047Z,780.51
2017-10-08T00:50:03.261Z,780.51
2017-10-08T00:50:07.473Z,780.49
2017-10-08T00:50:11.561Z,780.5
2017-10-08T00:50:15.527Z,780.45
2017-10-08T00:50:19.362Z,780.52
2017-10-08T00:50:23.448Z,780.49
2017-10-08T00:50:27.535Z,780.49
2017-10-08T00:50:31.752Z,780.49
2017-10-08T00:50:36.094Z,780.51
2017-10-08T00:50:40.057Z,780.53
2017-10-08T00:50:44.398Z,780.49
2017-10-08T00:50:48.610Z,780.51
2017-10-08T00:50:52.697Z,780.5
2017-10-08T00:50:56.915Z,780.5
2017-10-08T00:51:01.000Z,780.51
2017-10-08T00:51:05.192Z,780.52
2017-10-08T00:51:09.648Z,780.48
2017-10-08T00:51:13.863Z,780.5
2017-10-08T00:51:17.953Z,780.48
2017-10-08T00:51:22.040Z,780.47
2017-10-08T00:51:26.001Z,780.5
2017-10-08T00:51:30.086Z,780.48
2017-10-08T00:51:34.049Z,780.47
2017-10-08T00:51:38.269Z,780.45
2017-10-08T00:51:42.600Z,780.44
2017-10-08T00:51:46.812Z,780.49
2017-10-08T00:51:50.901Z,780.5
2017-10-08T00:51:54.986Z,780.52
2017-10-08T00:51:59.233Z,780.49
2017-10-08T00:52:03.123Z,780.46